Time;durP1;ratioP1;P1;durP2;ratioP2;P2;SDS_P1;SDS_P2;PMS_P1;PMS_P2;Temp;Humidity;BMP_temperature;BMP_pressure;BME280_temperature;BME280_humidity;BME280_pressure;Samples;Min_cycle;Max_cycle;Signal;HPM_P1;HPM_P2
2021/06/05 00:00:55;;;;;;;8.82;6.65;;;;;;;30.21;49.62;100785.41;5064729;28;69334;-36
2021/06/05 00:03:28;;;;;;;7.05;6.55;;;;;;;30.27;48.61;100784.56;5075953;27;66318;-36
2021/06/05 00:06:02;;;;;;;7.78;7.18;;;;;;;30.32;49.36;100792.03;5074411;28;69925;-35
2021/06/05 00:08:34;;;;;;;6.97;6.47;;;;;;;30.37;49.49;100785.97;5076552;27;65462;-35
2021/06/05 00:11:09;;;;;;;7.93;7.22;;;;;;;30.43;49.71;100804.06;5068763;28;69214;-35
2021/06/05 00:13:47;;;;;;;9.52;6.63;;;;;;;30.17;50.58;100750.91;5066546;28;66164;-35
2021/06/05 00:16:21;;;;;;;6.63;6.22;;;;;;;30.24;49.98;100749.84;5075961;28;69221;-35
2021/06/05 00:18:54;;;;;;;11.07;6.75;;;;;;;30.56;51.32;100801.22;5073859;28;66123;-35
2021/06/05 00:21:27;;;;;;;8.15;6.47;;;;;;;30.08;50.81;100726.00;5080086;27;69091;-36
2021/06/05 00:24:00;;;;;;;6.88;6.35;;;;;;;30.67;50.67;100822.19;5071415;28;66017;-37
2021/06/05 00:26:31;;;;;;;;;;;;;;;30.48;53.42;100813.16;5071487;27;70176;-36
2021/06/05 00:29:04;;;;;;;16.60;6.63;;;;;;;30.46;51.17;100771.13;5073752;28;66452;-35
2021/06/05 00:31:36;;;;;;;16.20;6.75;;;;;;;30.79;50.96;100825.00;5070237;28;69417;-36
2021/06/05 00:34:08;;;;;;;;;;;;;;;30.64;53.45;100819.91;5067324;27;65333;-36
2021/06/05 00:36:40;;;;;;;7.03;6.53;;;;;;;30.86;52.14;100825.81;5077379;28;68944;-36
2021/06/05 00:39:13;;;;;;;15.77;7.93;;;;;;;30.90;54.02;100831.63;5075257;27;64980;-35
2021/06/05 00:41:45;;;;;;;22.27;8.35;;;;;;;31.00;54.67;100828.41;5070959;28;70409;-38
2021/06/05 00:44:17;;;;;;;18.98;8.95;;;;;;;31.04;56.48;100826.91;5075476;28;65227;-36
2021/06/05 00:46:49;;;;;;;10.80;9.15;;;;;;;31.15;57.88;100840.56;5074752;28;69311;-36
2021/06/05 00:49:20;;;;;;;;;;;;;;;31.04;60.37;100844.00;5077086;27;66292;-36
2021/06/05 00:51:56;;;;;;;14.05;8.93;;;;;;;31.05;57.97;100813.13;5073040;27;70062;-36
2021/06/05 00:54:34;;;;;;;10.10;9.32;;;;;;;31.34;59.18;100840.56;5076450;28;64956;-36
2021/06/05 00:57:07;;;;;;;9.63;8.52;;;;;;;31.41;58.38;100849.50;5058506;28;69827;-36
2021/06/05 00:59:41;;;;;;;16.00;9.80;;;;;;;31.45;58.27;100847.97;5074702;27;65148;-36
2021/06/05 01:02:14;;;;;;;11.77;10.68;;;;;;;31.54;58.21;100849.34;5072858;28;69129;-36
2021/06/05 01:04:47;;;;;;;20.50;10.95;;;;;;;31.65;58.42;100861.34;5076707;27;66139;-36
2021/06/05 01:07:22;;;;;;;14.18;11.20;;;;;;;31.73;58.67;100863.75;5073391;27;70298;-35
2021/06/05 01:10:07;;;;;;;11.25;10.25;;;;;;;31.51;59.24;100816.41;5078078;27;66054;-35
2021/06/05 01:12:54;;;;;;;11.93;10.00;;;;;;;31.86;60.64;100862.75;5073334;28;69686;-36
2021/06/05 01:15:34;;;;;;;17.38;11.38;;;;;;;31.63;58.82;100813.81;5071877;28;65320;-36
2021/06/05 01:18:35;;;;;;;12.63;11.27;;;;;;;31.69;59.23;100815.59;5073719;27;69182;-36
2021/06/05 01:21:38;;;;;;;15.40;11.20;;;;;;;32.01;60.15;100882.22;5069868;28;65991;-38
2021/06/05 01:24:37;;;;;;;11.90;10.77;;;;;;;32.08;60.34;100881.28;5058766;28;70316;-37
2021/06/05 01:27:24;;;;;;;22.65;10.60;;;;;;;32.16;60.14;100894.56;5059419;28;66654;-37
2021/06/05 01:30:06;;;;;;;11.13;10.10;;;;;;;32.22;59.35;100899.06;5062115;28;70495;-35
2021/06/05 01:32:40;;;;;;;14.38;10.85;;;;;;;32.26;58.98;100908.38;5071341;28;64968;-35
2021/06/05 01:35:15;;;;;;;10.70;9.90;;;;;;;32.07;59.04;100871.47;5077285;28;69183;-37
2021/06/05 01:37:49;;;;;;;16.50;10.57;;;;;;;32.32;59.80;100893.91;5075125;27;65530;-38
2021/06/05 01:40:28;;;;;;;15.38;11.23;;;;;;;32.15;60.39;100855.72;5069115;28;70126;-37
2021/06/05 01:43:05;;;;;;;18.77;11.02;;;;;;;32.36;60.23;100886.97;5073528;27;65882;-38
2021/06/05 01:45:45;;;;;;;14.23;12.63;;;;;;;32.07;60.24;100836.22;5069263;28;68984;-39
2021/06/05 01:48:20;;;;;;;22.08;12.48;;;;;;;32.37;60.34;100882.34;5070132;28;65752;-39
2021/06/05 01:50:56;;;;;;;13.23;11.65;;;;;;;32.42;60.24;100888.75;5067820;28;70751;-39
2021/06/05 01:53:36;;;;;;;14.07;12.80;;;;;;;32.44;60.14;100892.06;5062068;28;65240;-37
2021/06/05 01:56:36;;;;;;;25.63;11.75;;;;;;;32.09;62.86;100842.25;5085788;27;70049;-37
2021/06/05 01:59:18;;;;;;;17.80;12.02;;;;;;;32.40;62.18;100899.03;5072218;27;65707;-38
2021/06/05 02:01:59;;;;;;;17.55;11.60;;;;;;;32.33;61.48;100890.13;5071869;27;69725;-37
2021/06/05 02:04:34;;;;;;;14.77;11.40;;;;;;;32.38;62.01;100905.75;5067554;27;65901;-37
2021/06/05 02:07:08;;;;;;;20.80;9.68;;;;;;;32.35;62.11;100898.88;5073090;28;70186;-38
2021/06/05 02:09:44;;;;;;;22.73;10.40;;;;;;;32.35;62.03;100904.31;5070482;28;66383;-37
2021/06/05 02:12:30;;;;;;;14.88;10.02;;;;;;;32.38;62.50;100909.28;5072224;28;69022;-37
2021/06/05 02:15:44;;;;;;;10.68;9.60;;;;;;;32.40;62.16;100907.16;5065158;27;68440;-37
2021/06/05 02:18:27;;;;;;;10.13;9.32;;;;;;;32.31;62.25;100896.84;5068958;27;69798;-39
2021/06/05 02:21:17;;;;;;;13.88;9.63;;;;;;;32.43;62.30;100917.56;5072094;28;65956;-38
2021/06/05 02:24:05;;;;;;;10.23;9.35;;;;;;;32.10;62.03;100854.78;5066017;27;70282;-38
2021/06/05 02:26:47;;;;;;;27.65;11.15;;;;;;;32.53;61.76;100916.22;5072242;28;66563;-39
2021/06/05 02:29:36;;;;;;;20.42;10.63;;;;;;;32.20;61.92;100860.44;5072297;28;69891;-38
2021/06/05 02:32:19;;;;;;;13.30;10.35;;;;;;;32.34;61.95;100886.34;5067896;28;65805;-39
2021/06/05 02:34:57;;;;;;;13.00;9.45;;;;;;;32.59;61.13;100926.13;5071693;28;70217;-39
2021/06/05 02:37:48;;;;;;;12.95;9.27;;;;;;;32.60;61.38;100925.94;5071528;28;66060;-39
2021/06/05 02:40:30;;;;;;;12.85;9.52;;;;;;;32.43;61.19;100885.00;5068938;28;69908;-39
2021/06/05 02:43:11;;;;;;;14.50;9.27;;;;;;;32.64;61.45;100923.56;5073864;27;65443;-38
2021/06/05 02:46:15;;;;;;;9.43;8.55;;;;;;;32.61;61.08;100902.31;5072523;28;70452;-41
2021/06/05 02:48:59;;;;;;;10.55;9.07;;;;;;;32.74;61.26;100917.59;5073234;28;65299;-39
2021/06/05 02:51:46;;;;;;;17.63;9.70;;;;;;;32.58;60.67;100871.00;5073998;27;70116;-37
2021/06/05 02:54:25;;;;;;;15.82;8.88;;;;;;;32.76;60.56;100891.81;5070889;28;66370;-40
2021/06/05 02:57:02;;;;;;;13.23;9.35;;;;;;;32.88;60.47;100898.13;5067126;28;69893;-44
2021/06/05 02:59:43;;;;;;;11.57;8.18;;;;;;;32.87;60.06;100895.63;5053700;28;66139;-40
2021/06/05 03:02:18;;;;;;;9.88;9.07;;;;;;;32.93;60.67;100895.53;5070090;27;69658;-39
2021/06/05 03:04:52;;;;;;;13.55;8.68;;;;;;;32.98;60.52;100902.13;5068392;28;65397;-38
2021/06/05 03:07:28;;;;;;;9.80;8.90;;;;;;;32.97;60.21;100905.94;5072158;28;69740;-39
2021/06/05 03:10:04;;;;;;;12.95;9.00;;;;;;;33.00;60.31;100895.44;5067330;28;66384;-38
2021/06/05 03:12:38;;;;;;;18.25;8.68;;;;;;;33.02;60.01;100895.22;5074824;28;69462;-40
2021/06/05 03:15:13;;;;;;;10.05;9.05;;;;;;;33.06;60.05;100893.69;5070651;28;66071;-40
2021/06/05 03:17:51;;;;;;;9.48;8.73;;;;;;;33.08;60.02;100880.69;5070145;28;70293;-42
2021/06/05 03:20:37;;;;;;;12.75;9.50;;;;;;;33.09;60.33;100888.59;5067456;28;66132;-41
2021/06/05 03:23:12;;;;;;;13.93;8.48;;;;;;;33.10;60.09;100890.25;5067536;28;69398;-41
2021/06/05 03:25:47;;;;;;;8.88;8.18;;;;;;;33.10;59.25;100878.56;5072362;28;67022;-41
2021/06/05 03:28:24;;;;;;;9.68;7.95;;;;;;;33.17;59.02;100879.25;5070158;28;69087;-44
2021/06/05 03:31:02;;;;;;;8.68;7.88;;;;;;;33.20;58.84;100873.34;5071031;27;65592;-42
2021/06/05 03:33:37;;;;;;;10.38;7.53;;;;;;;33.21;58.78;100879.63;5071704;27;70488;-42
2021/06/05 03:36:14;;;;;;;7.10;6.60;;;;;;;33.21;58.53;100869.59;5072484;28;65912;-42
2021/06/05 03:38:50;;;;;;;6.72;6.13;;;;;;;33.20;58.38;100859.75;5066747;27;70143;-41
2021/06/05 03:41:41;;;;;;;12.02;6.65;;;;;;;33.23;58.39;100853.84;5067040;28;64230;-41
2021/06/05 03:44:20;;;;;;;7.35;6.63;;;;;;;33.29;58.21;100854.78;5068236;27;69898;-40
2021/06/05 03:46:55;;;;;;;7.63;6.20;;;;;;;33.32;58.31;100855.16;5072195;28;66823;-41
2021/06/05 03:49:29;;;;;;;7.15;6.25;;;;;;;33.32;57.86;100849.72;5068332;28;69474;-40
2021/06/05 03:52:04;;;;;;;7.95;6.57;;;;;;;33.37;57.98;100841.66;5066907;28;66222;-41
2021/06/05 03:54:38;;;;;;;6.85;6.35;;;;;;;33.41;57.72;100827.63;5068609;27;70255;-40
2021/06/05 03:57:15;;;;;;;7.35;6.85;;;;;;;33.44;57.56;100829.84;5069550;28;67092;-39
2021/06/05 03:59:52;;;;;;;7.65;5.85;;;;;;;33.49;57.02;100821.78;5071986;27;70017;-43
2021/06/05 04:02:25;;;;;;;7.78;6.40;;;;;;;33.51;57.21;100830.53;5069187;28;66485;-43
2021/06/05 04:04:59;;;;;;;6.88;6.32;;;;;;;33.52;57.15;100821.31;5077107;27;68663;-41
2021/06/05 04:07:32;;;;;;;6.75;5.82;;;;;;;33.57;56.85;100830.44;5075614;27;65514;-42
2021/06/05 04:10:08;;;;;;;7.20;6.50;;;;;;;33.55;56.56;100810.00;5074498;27;69286;-44
2021/06/05 04:12:41;;;;;;;8.77;5.28;;;;;;;33.48;56.30;100779.34;5043822;28;65461;-42
2021/06/05 04:15:15;;;;;;;6.85;5.55;;;;;;;33.53;55.90;100784.94;5066921;27;69190;-42
2021/06/05 04:17:49;;;;;;;5.88;5.38;;;;;;;33.69;55.66;100811.38;5066335;28;65289;-45
2021/06/05 04:20:23;;;;;;;10.68;5.20;;;;;;;33.72;55.64;100805.44;5076495;27;70039;-43
2021/06/05 04:22:57;;;;;;;5.88;5.32;;;;;;;33.48;55.66;100755.69;5073619;28;65138;-44
2021/06/05 04:25:37;;;;;;;9.85;5.88;;;;;;;33.70;55.51;100791.25;5066993;28;69178;-40
2021/06/05 04:28:14;;;;;;;5.18;4.78;;;;;;;33.74;54.80;100786.13;5048768;28;66151;-41
2021/06/05 04:30:50;;;;;;;6.40;5.80;;;;;;;33.76;54.55;100784.00;5071971;27;69393;-41
2021/06/05 04:33:24;;;;;;;;;;;;;;;33.59;54.69;100783.94;5068839;28;66191;-40
2021/06/05 04:36:01;;;;;;;4.72;4.40;;;;;;;33.77;54.33;100762.03;5073708;28;69226;-42
2021/06/05 04:38:36;;;;;;;6.15;5.65;;;;;;;33.75;54.33;100756.00;5071533;28;65081;-40
2021/06/05 04:41:12;;;;;;;6.20;5.70;;;;;;;33.85;54.70;100781.72;5075687;27;69831;-42
2021/06/05 04:43:45;;;;;;;7.28;6.57;;;;;;;33.87;54.84;100774.16;5066268;27;65215;-42
2021/06/05 04:46:19;;;;;;;14.20;6.30;;;;;;;33.91;55.15;100780.78;5076822;27;70183;-42
2021/06/05 04:48:54;;;;;;;8.52;6.05;;;;;;;33.93;55.21;100770.47;5072845;28;65610;-41
2021/06/05 04:51:30;;;;;;;6.35;5.75;;;;;;;33.92;55.09;100766.09;5069573;28;70302;-44
2021/06/05 04:54:05;;;;;;;6.22;5.63;;;;;;;33.91;55.05;100761.72;5073649;28;65905;-41
2021/06/05 04:56:46;;;;;;;13.75;5.90;;;;;;;33.78;54.96;100736.44;5052341;28;68967;-41
2021/06/05 04:59:23;;;;;;;5.72;5.20;;;;;;;33.87;55.27;100752.38;5072765;27;64724;-45
2021/06/05 05:01:58;;;;;;;7.13;5.50;;;;;;;33.94;55.14;100764.78;5077081;27;69208;-43
2021/06/05 05:04:43;;;;;;;6.47;5.30;;;;;;;33.91;55.38;100751.66;5071738;28;66502;-41
2021/06/05 05:07:16;;;;;;;7.72;5.68;;;;;;;33.88;55.18;100746.72;5072205;28;69967;-42
2021/06/05 05:09:49;;;;;;;5.70;5.18;;;;;;;33.90;54.84;100741.00;5076182;27;65453;-42
2021/06/05 05:12:22;;;;;;;7.32;5.60;;;;;;;33.93;55.34;100729.63;5074997;28;69468;-44
2021/06/05 05:14:56;;;;;;;5.32;4.93;;;;;;;33.93;54.82;100716.03;5064339;27;66182;-42
2021/06/05 05:17:28;;;;;;;5.07;4.68;;;;;;;33.98;54.31;100716.13;5037166;28;69810;-42
2021/06/05 05:20:01;;;;;;;5.38;4.93;;;;;;;34.01;54.23;100712.91;5074084;28;65746;-41
2021/06/05 05:22:33;;;;;;;8.27;4.78;;;;;;;34.03;53.99;100708.06;5049834;28;70098;-42
2021/06/05 05:25:06;;;;;;;4.95;4.65;;;;;;;34.06;53.64;100701.31;5054115;28;64934;-44
2021/06/05 05:27:38;;;;;;;4.88;4.43;;;;;;;34.06;53.41;100701.31;5068061;27;69935;-43
2021/06/05 05:30:11;;;;;;;;;;;;;;;33.85;53.64;100691.94;5071431;27;65409;-41
2021/06/05 05:32:42;;;;;;;8.23;4.65;;;;;;;34.07;53.45;100692.91;5075251;27;69773;-42
2021/06/05 05:35:15;;;;;;;5.15;4.53;;;;;;;34.11;53.42;100677.75;5076679;28;66657;-44
2021/06/05 05:37:46;;;;;;;4.65;4.40;;;;;;;34.13;53.37;100681.03;5069123;27;70684;-45
2021/06/05 05:40:18;;;;;;;4.95;4.65;;;;;;;33.85;53.26;100615.75;5070793;28;66105;-43
2021/06/05 05:42:49;;;;;;;5.47;4.97;;;;;;;34.21;52.82;100672.47;5068214;27;68829;-44
2021/06/05 05:45:21;;;;;;;6.40;4.63;;;;;;;34.23;52.66;100664.03;5069763;28;66010;-41
2021/06/05 05:47:56;;;;;;;6.05;4.70;;;;;;;34.28;52.28;100666.03;5074434;27;71120;-44
2021/06/05 05:50:32;;;;;;;5.25;4.38;;;;;;;34.30;51.70;100674.75;5073755;28;65229;-41
2021/06/05 05:53:06;;;;;;;4.95;4.50;;;;;;;33.96;51.72;100598.53;5064481;27;69965;-41
2021/06/05 05:55:39;;;;;;;8.27;4.20;;;;;;;34.36;51.82;100641.09;5066214;28;66378;-42
2021/06/05 05:58:16;;;;;;;4.60;4.20;;;;;;;34.20;51.38;100600.03;5073972;28;69967;-41
2021/06/05 06:00:52;;;;;;;4.95;4.55;;;;;;;34.14;51.33;100590.13;5057518;28;65165;-42
2021/06/05 06:03:25;;;;;;;4.32;4.00;;;;;;;34.42;51.41;100624.56;5063447;28;70954;-43
2021/06/05 06:05:59;;;;;;;3.90;3.70;;;;;;;34.46;51.26;100620.28;5066689;27;65218;-42
2021/06/05 06:08:34;;;;;;;5.45;4.82;;;;;;;34.49;50.88;100608.03;5075319;27;69208;-42
2021/06/05 06:11:11;;;;;;;5.22;4.13;;;;;;;34.51;50.72;100594.19;5068233;28;65306;-42
2021/06/05 06:13:46;;;;;;;4.45;4.10;;;;;;;34.54;50.48;100597.22;5077497;27;69251;-41
2021/06/05 06:16:19;;;;;;;4.97;4.57;;;;;;;34.30;50.43;100552.22;5069932;28;65422;-41
2021/06/05 06:18:53;;;;;;;4.35;4.10;;;;;;;34.56;50.41;100577.94;5076400;28;69324;-41
2021/06/05 06:21:30;;;;;;;4.00;3.80;;;;;;;34.57;50.47;100566.78;5072499;27;65941;-43
2021/06/05 06:24:04;;;;;;;5.60;4.32;;;;;;;34.55;50.58;100563.47;5057172;28;69963;-44
2021/06/05 06:26:39;;;;;;;5.53;4.38;;;;;;;34.61;50.22;100545.31;5068020;28;66162;-41
2021/06/05 06:29:17;;;;;;;4.22;3.80;;;;;;;34.61;50.31;100542.59;5063051;28;70167;-43
2021/06/05 06:31:50;;;;;;;5.43;4.13;;;;;;;34.64;50.42;100540.19;5066764;28;66064;-44
2021/06/05 06:34:26;;;;;;;7.13;4.40;;;;;;;34.58;50.06;100519.41;5061607;28;70141;-41
2021/06/05 06:37:03;;;;;;;4.50;4.20;;;;;;;34.62;50.32;100525.16;5073460;27;66278;-41
2021/06/05 06:39:36;;;;;;;4.60;4.30;;;;;;;34.65;50.18;100520.03;5064085;28;69116;-40
2021/06/05 06:42:09;;;;;;;5.82;4.40;;;;;;;34.72;49.98;100521.75;5064706;28;65565;-41
2021/06/05 06:44:45;;;;;;;5.68;4.40;;;;;;;34.74;49.69;100527.75;5074532;27;69256;-41
2021/06/05 06:47:17;;;;;;;4.97;4.57;;;;;;;34.68;49.52;100503.16;5074422;27;67047;-41
2021/06/05 06:49:49;;;;;;;6.15;4.38;;;;;;;34.72;49.54;100508.94;5073639;28;69995;-43
2021/06/05 06:52:25;;;;;;;;;;;;;;;34.55;49.55;100500.84;5070437;28;66350;-40
2021/06/05 06:54:56;;;;;;;4.43;4.03;;;;;;;34.79;49.89;100495.13;5066340;27;70613;-44
2021/06/05 06:57:27;;;;;;;;;;;;;;;34.58;50.02;100485.91;5056931;28;65961;-45
2021/06/05 07:00:00;;;;;;;4.38;4.07;;;;;;;34.85;49.79;100480.47;5065682;27;69443;-41
2021/06/05 07:02:31;;;;;;;6.45;4.35;;;;;;;34.88;49.56;100490.84;5091237;27;66080;-41
2021/06/05 07:05:03;;;;;;;4.75;4.30;;;;;;;34.92;49.51;100492.00;5077168;27;69805;-42
2021/06/05 07:07:35;;;;;;;7.00;4.18;;;;;;;34.94;49.07;100484.38;5068828;28;67080;-42
2021/06/05 07:10:08;;;;;;;4.25;4.05;;;;;;;34.86;48.92;100466.59;5072538;27;69954;-41
2021/06/05 07:12:40;;;;;;;5.80;4.00;;;;;;;34.95;49.10;100471.56;5068894;28;65097;-41
2021/06/05 07:15:13;;;;;;;5.63;4.63;;;;;;;35.02;48.31;100464.84;5073491;28;69100;-41
2021/06/05 07:17:51;;;;;;;4.68;4.38;;;;;;;35.04;48.73;100473.56;5069281;28;65470;-41
2021/06/05 07:20:25;;;;;;;5.50;3.92;;;;;;;35.04;48.26;100461.84;5070854;28;70298;-41
2021/06/05 07:23:03;;;;;;;4.97;3.90;;;;;;;35.04;48.09;100450.94;5077173;27;66398;-41
2021/06/05 07:25:45;;;;;;;5.37;4.37;;;;;;;35.04;48.54;100440.84;5077987;27;69536;-41
2021/06/05 07:28:22;;;;;;;6.05;4.47;;;;;;;35.04;48.03;100435.41;5070593;28;66562;-41
2021/06/05 07:30:58;;;;;;;4.97;4.57;;;;;;;35.12;48.05;100456.75;5074470;27;69738;-42
2021/06/05 07:33:32;;;;;;;9.55;4.60;;;;;;;35.08;48.29;100436.56;5065635;27;65504;-42
2021/06/05 07:36:10;;;;;;;10.75;4.15;;;;;;;35.16;48.46;100448.06;5064971;27;69681;-41
2021/06/05 07:38:45;;;;;;;5.20;4.57;;;;;;;35.15;47.69;100439.06;5072037;28;66498;-42
2021/06/05 07:41:19;;;;;;;6.63;5.13;;;;;;;35.10;47.83;100417.22;5068413;28;69859;-41
2021/06/05 07:43:54;;;;;;;5.10;4.80;;;;;;;34.93;47.68;100379.16;5067631;28;66557;-41
2021/06/05 07:46:28;;;;;;;4.80;4.50;;;;;;;35.20;47.72;100411.03;5071675;28;70016;-41
2021/06/05 07:49:03;;;;;;;5.30;4.88;;;;;;;35.23;48.03;100410.50;5067913;27;66259;-41
2021/06/05 07:51:37;;;;;;;5.00;4.68;;;;;;;35.24;47.78;100409.41;5067349;28;68962;-42
2021/06/05 07:54:12;;;;;;;6.15;4.60;;;;;;;35.26;48.11;100399.06;5047951;28;64706;-42
2021/06/05 07:56:49;;;;;;;5.10;4.80;;;;;;;35.27;47.81;100395.25;5069056;28;70925;-41
2021/06/05 07:59:26;;;;;;;6.25;5.03;;;;;;;35.29;48.26;100404.00;5067980;28;66376;-41
2021/06/05 08:02:00;;;;;;;5.03;4.72;;;;;;;35.27;47.75;100404.28;5069798;28;69251;-41
2021/06/05 08:04:35;;;;;;;5.22;4.82;;;;;;;35.30;48.02;100411.94;5069079;28;66296;-45
2021/06/05 08:07:13;;;;;;;4.75;4.40;;;;;;;35.28;47.79;100407.81;5069181;27;70052;-42
2021/06/05 08:09:47;;;;;;;11.02;4.97;;;;;;;35.32;47.44;100419.84;5031966;28;65238;-42
2021/06/05 08:12:21;;;;;;;4.95;4.63;;;;;;;35.33;47.79;100422.31;5072130;28;70183;-41
2021/06/05 08:14:56;;;;;;;4.55;4.15;;;;;;;35.29;47.32;100425.81;5072277;28;66091;-43
2021/06/05 08:17:30;;;;;;;4.95;4.57;;;;;;;35.36;47.19;100432.69;5074714;27;69221;-42
2021/06/05 08:20:08;;;;;;;8.50;5.30;;;;;;;34.92;47.55;100363.91;5069492;28;65337;-42
2021/06/05 08:22:42;;;;;;;5.00;4.68;;;;;;;35.38;47.44;100439.78;5064409;28;70069;-42
2021/06/05 08:25:17;;;;;;;7.60;4.88;;;;;;;35.32;47.30;100430.75;5072190;27;66338;-42
2021/06/05 08:27:52;;;;;;;9.48;5.82;;;;;;;35.38;48.31;100435.16;5068925;27;69953;-40
2021/06/05 08:30:35;;;;;;;7.88;6.57;;;;;;;35.08;48.22;100389.41;5073725;28;66110;-43
2021/06/05 08:33:11;;;;;;;12.02;5.90;;;;;;;35.31;49.21;100440.03;5073452;28;70084;-41
2021/06/05 08:35:45;;;;;;;13.00;7.18;;;;;;;35.39;49.32;100480.44;5070161;28;65832;-42
2021/06/05 08:38:23;;;;;;;7.90;7.40;;;;;;;35.28;49.89;100473.25;5073480;27;68941;-43
2021/06/05 08:41:15;;;;;;;12.38;7.93;;;;;;;35.42;49.82;100485.38;5075493;27;66199;-42
2021/06/05 08:44:07;;;;;;;18.70;7.72;;;;;;;35.12;49.03;100447.78;5065134;27;70563;-42
2021/06/05 08:46:45;;;;;;;;;;;;;;;35.05;48.44;100491.56;5054053;28;65396;-43
2021/06/05 08:49:25;;;;;;;12.85;6.97;;;;;;;35.26;48.24;100502.69;5071916;28;70237;-45
2021/06/05 08:52:29;;;;;;;10.98;6.20;;;;;;;34.80;47.74;100451.28;5074801;28;66051;-41
2021/06/05 08:55:13;;;;;;;21.48;7.32;;;;;;;34.84;46.96;100478.81;5073034;28;70646;-42
2021/06/05 08:57:54;;;;;;;24.15;7.20;;;;;;;34.54;46.95;100444.69;5059868;28;65483;-43
2021/06/05 09:00:40;;;;;;;13.05;6.13;;;;;;;34.92;46.95;100519.25;5075846;28;69148;-42
2021/06/05 09:03:17;;;;;;;18.80;6.95;;;;;;;34.93;46.80;100520.88;5074707;28;66204;-42
2021/06/05 09:06:00;;;;;;;12.75;6.80;;;;;;;34.47;46.66;100457.69;5069057;27;69281;-43
2021/06/05 09:08:37;;;;;;;17.50;6.75;;;;;;;34.85;47.54;100526.78;5076435;28;64953;-43
2021/06/05 09:11:14;;;;;;;18.45;7.75;;;;;;;34.79;47.96;100530.53;5076246;27;69287;-43
2021/06/05 09:13:51;;;;;;;8.48;7.07;;;;;;;34.74;48.36;100539.47;5075353;28;66320;-41
2021/06/05 09:16:40;;;;;;;12.63;7.25;;;;;;;34.66;48.12;100545.38;5063191;28;69850;-42
2021/06/05 09:19:29;;;;;;;13.23;7.57;;;;;;;34.68;48.24;100538.59;5066294;28;66323;-46
2021/06/05 09:22:09;;;;;;;19.58;8.65;;;;;;;34.62;48.30;100519.72;5064562;27;69498;-43
2021/06/05 09:24:45;;;;;;;29.67;8.15;;;;;;;34.60;48.62;100517.28;5074382;27;66702;-41
2021/06/05 09:27:18;;;;;;;14.05;8.32;;;;;;;34.59;48.82;100518.31;5071737;27;70712;-40
2021/06/05 09:30:05;;;;;;;18.92;7.72;;;;;;;34.58;48.79;100519.41;5055212;28;66183;-42
2021/06/05 09:32:47;;;;;;;16.67;7.35;;;;;;;34.51;48.85;100518.75;5075526;27;69430;-40
2021/06/05 09:35:29;;;;;;;14.48;7.55;;;;;;;34.15;49.26;100477.44;5058682;28;65917;-40
2021/06/05 09:38:31;;;;;;;20.88;8.15;;;;;;;34.41;49.30;100551.31;5072070;28;70541;-40
2021/06/05 09:41:25;;;;;;;16.17;8.48;;;;;;;33.78;48.95;100461.69;5069410;28;66157;-40
2021/06/05 09:44:39;;;;;;;11.68;8.35;;;;;;;34.26;49.56;100551.91;5070039;28;69897;-42
2021/06/05 09:47:18;;;;;;;35.67;9.18;;;;;;;34.42;49.42;100575.56;5026130;27;65332;-42
2021/06/05 09:49:59;;;;;;;16.45;9.43;;;;;;;34.43;49.07;100581.81;5067231;28;70053;-43
2021/06/05 09:52:35;;;;;;;24.48;10.00;;;;;;;34.26;49.36;100558.19;5060089;28;65507;-40
2021/06/05 09:55:32;;;;;;;21.48;9.73;;;;;;;34.33;49.78;100576.25;5064088;28;70040;-40
2021/06/05 09:58:10;;;;;;;20.80;9.43;;;;;;;34.38;49.90;100574.41;5077568;27;66293;-44
2021/06/05 10:00:44;;;;;;;16.10;10.35;;;;;;;34.37;49.98;100571.94;5069309;28;70152;-39
2021/06/05 10:03:25;;;;;;;14.95;10.35;;;;;;;34.37;50.28;100571.94;5064529;28;65939;-39
2021/06/05 10:05:59;;;;;;;19.67;10.93;;;;;;;34.34;50.51;100567.00;5074547;28;70077;-40
2021/06/05 10:08:41;;;;;;;27.02;10.90;;;;;;;34.25;50.78;100570.16;5075328;27;66257;-39
2021/06/05 10:11:19;;;;;;;20.38;10.80;;;;;;;34.32;50.88;100571.88;5067792;28;70066;-39
2021/06/05 10:14:16;;;;;;;47.28;12.50;;;;;;;34.24;51.08;100556.78;5069247;28;66055;-40
2021/06/05 10:17:12;;;;;;;47.97;12.25;;;;;;;34.16;51.72;100552.59;5067772;28;70456;-39
2021/06/05 10:19:53;;;;;;;32.05;11.10;;;;;;;34.30;51.29;100560.38;5075200;27;65268;-39
2021/06/05 10:22:28;;;;;;;26.40;11.52;;;;;;;34.26;51.93;100554.63;5068576;27;69971;-39
2021/06/05 10:25:30;;;;;;;29.65;11.68;;;;;;;34.19;52.36;100557.53;5070879;28;65471;-40
2021/06/05 10:28:05;;;;;;;;;;;;;;;33.97;53.85;100551.19;5072614;28;70029;-41
2021/06/05 10:30:49;;;;;;;38.20;12.30;;;;;;;34.19;53.78;100559.44;5069101;27;66721;-40
2021/06/05 10:33:50;;;;;;;20.42;11.75;;;;;;;33.61;53.54;100477.22;5064825;28;70274;-41
2021/06/05 10:36:36;;;;;;;28.15;12.30;;;;;;;34.21;53.29;100584.50;5068199;28;66135;-40
2021/06/05 10:39:12;;;;;;;21.48;12.63;;;;;;;34.19;53.41;100586.66;5066376;28;69745;-40
2021/06/05 10:42:11;;;;;;;31.17;12.52;;;;;;;34.02;53.69;100567.63;5073964;28;65983;-40
2021/06/05 10:44:45;;;;;;;27.48;11.98;;;;;;;34.17;53.31;100581.47;5072111;27;70648;-42
2021/06/05 10:47:51;;;;;;;15.70;12.02;;;;;;;34.01;53.50;100579.56;5064738;28;66155;-41
2021/06/05 10:50:56;;;;;;;44.30;13.90;;;;;;;33.82;52.94;100532.72;5069497;27;70076;-41
2021/06/05 10:54:00;;;;;;;26.17;13.63;;;;;;;34.04;53.81;100584.50;5066912;27;65582;-40
2021/06/05 10:56:36;;;;;;;28.17;13.00;;;;;;;34.13;53.16;100583.06;5078851;28;70090;-41
2021/06/05 10:59:45;;;;;;;31.35;13.35;;;;;;;34.00;54.03;100577.91;5070185;28;66233;-41
2021/06/05 11:02:38;;;;;;;28.13;13.75;;;;;;;34.01;54.10;100574.13;5074824;27;69829;-41
2021/06/05 11:05:33;;;;;;;17.08;11.73;;;;;;;34.00;54.40;100572.47;5066063;28;65181;-40
2021/06/05 11:08:16;;;;;;;28.00;12.77;;;;;;;34.07;54.20;100578.59;5052594;28;69118;-43
2021/06/05 11:10:55;;;;;;;29.30;14.55;;;;;;;34.04;54.57;100589.94;5072423;27;65810;-42
2021/06/05 11:16:07;;;;;;;20.13;13.25;;;;;;;34.01;54.78;100620.38;5075955;28;66044;-40
2021/06/05 11:18:44;;;;;;;27.33;14.80;;;;;;;34.05;55.55;100618.84;5071757;27;69864;-40
2021/06/05 11:21:43;;;;;;;26.67;13.57;;;;;;;34.01;55.67;100623.09;5071288;27;64574;-41
2021/06/05 11:24:23;;;;;;;21.55;14.23;;;;;;;34.01;55.98;100631.25;5069764;28;70432;-42
2021/06/05 11:26:57;;;;;;;23.25;13.93;;;;;;;33.61;56.11;100579.75;5069132;28;66258;-40
2021/06/05 11:29:31;;;;;;;22.92;13.98;;;;;;;33.96;55.51;100642.06;5075081;27;70404;-40
2021/06/05 11:32:19;;;;;;;29.85;14.57;;;;;;;33.86;56.20;100647.34;5072284;27;65171;-41
2021/06/05 11:34:57;;;;;;;37.45;14.70;;;;;;;33.91;56.96;100647.44;5072019;27;69938;-40
2021/06/05 11:37:47;;;;;;;42.33;14.50;;;;;;;33.56;57.26;100605.75;5073776;27;66441;-40
2021/06/05 11:40:51;;;;;;;48.35;13.60;;;;;;;33.71;55.59;100651.47;5074745;28;70374;-42
2021/06/05 11:43:31;;;;;;;31.15;13.35;;;;;;;33.66;53.85;100653.28;5057643;28;65789;-39
2021/06/05 11:46:08;;;;;;;27.20;12.98;;;;;;;33.57;52.37;100650.09;5073656;28;69079;-41
2021/06/05 11:49:01;;;;;;;36.42;12.05;;;;;;;33.37;50.92;100642.34;5062720;28;65157;-41
2021/06/05 11:51:51;;;;;;;27.98;12.38;;;;;;;33.27;50.26;100645.72;5068085;28;69915;-42
2021/06/05 11:54:24;;;;;;;25.40;12.23;;;;;;;33.15;49.06;100663.94;5072673;27;65912;-44
2021/06/05 11:57:08;;;;;;;28.40;10.50;;;;;;;33.04;50.91;100667.53;5076316;27;70651;-43
2021/06/05 11:59:45;;;;;;;21.58;11.65;;;;;;;32.93;50.33;100670.03;5076258;27;65225;-40
2021/06/05 12:02:20;;;;;;;26.50;11.05;;;;;;;32.84;50.69;100674.16;5058003;27;70077;-39
2021/06/05 12:05:05;;;;;;;18.60;10.68;;;;;;;32.70;49.21;100683.63;5065425;27;65932;-39
2021/06/05 12:07:41;;;;;;;21.60;9.98;;;;;;;32.31;48.63;100645.22;5068292;28;69788;-39
2021/06/05 12:10:29;;;;;;;15.75;9.43;;;;;;;32.17;47.84;100641.09;5073567;27;66890;-38
2021/06/05 12:13:02;;;;;;;20.38;9.95;;;;;;;32.38;47.55;100705.69;5070048;28;70619;-37
2021/06/05 12:15:40;;;;;;;15.50;9.73;;;;;;;31.97;45.76;100672.09;5069561;28;67283;-36
2021/06/05 12:18:28;;;;;;;10.88;9.20;;;;;;;31.77;45.47;100676.97;5070605;28;69882;-39